Griffithtown, Arkansas
Current Conditions -  °F | °C
As of 12:56 AM on Thursday 23 Oct 2014 (Local Time) from KADF Reporting Station
Clear Clear  
Wind Chill: 51°   Ceiling: Unl
Heat Index: 51°   Visibility: 8mi
Dew Point: 51°   Wind: 3mph
Humidity: 100%   Direction: 230°SW
Pressure: 30.18"   Gusts: NA
Location:  34.0941°N, 93.0475°W
Report Text: KADF 230556Z AUTO 23003KT 8SM CLR 11/11 A3018 RMK AO2 58007 T01050105 10177 20105 SLP234
Loading
Personal Weather Stations






























Interactive Weather Map New forecast layout! Learn more

10-Day Weather Forecast

Advertisements
Track Severe Weather on mobile